To NAV CANADA Home Page Login to a new session Search on AWWS site Feedback and Comments Disclaimer Vers la page française équivalente Tips FAQ What's new on the site To the Forecasts and Observations / NOTAM section To "File a Flight Plan" website Publications and other links Update of the User's profile FIC Telephone Numbers My Weather Data Folder Route Weather Data Regional Weather Data Local Weather Data To the Forecasts and Observations / NOTAM section
Request Generated 07/06/2015 at 20:10:07 UTC . Weather information available at that time is displayed.

METAR/TAF

SARNIA/SARNIA (CHRIS HADFIELD)/ON    (show WxCam)

METAR CYZR 062000Z AUTO 21009KT 9SM CLR 28/15 A3000 RMK SLP156
DENSITY ALT 2100FT=
METAR CYZR 061900Z AUTO 22007KT 160V230 9SM CLR 28/16 A3001 RMK
TS/LTNG TEMPO UNAVBL SLP161 DENSITY ALT 2000FT=
METAR CYZR 061800Z AUTO 18009KT 140V200 9SM CLR 27/15 A3001 RMK
SLP161 DENSITY ALT 2000FT=

TAF CYZR 061939Z 0620/0702 20008KT P6SM SKC
RMK FCST BASED ON AUTO OBS. NXT FCST WILL BE ISSUED AT 071145Z=
Your time UTC time
Weather data provided by Environment Canada and NAV CANADA